Airfield :
LOGIN :

Register | Disclaimer

   EN    FR    IT 

 










Legend :    VFR   Marginal VFR   IFR   Intensive IFR   Very Intensive IFR
Visi :
Ceiling :
>= 8 km
>= 3000ft
5 to 8 km
1000 to 3000 ft
1500m to 5 km
500 to 1000 ft
800 to 1500m
200 to 500 ft
< 800m
< 200 ft
Symbols :   Thunderstorms  Fog  Heavy snow  Heavy precipitations  Wind > 20 kt
SIGMETs :     Misc.  Thunderstorms  Icing  Turbulence  Mountain Waves  Volcanic Ashes






- Airport Elevation : 697 ft
- IATA code : PEG


LIRZ - San Edigio Perugia

CURRENT METAR :
  • 121750Z AUTO 21010KT 9999 NCD 32/14 Q1015

EXPIRED METARs :
  • 121720Z AUTO 22007KT 9999 NCD 34/15 Q1015
  • 121650Z AUTO 25006KT 220V300 9999 NCD 35/14 Q1014
  • 121620Z AUTO 31005KT 230V340 9999 NCD 36/12 Q1015
  • 121550Z AUTO 31007KT 270V020 9999 NCD 36/12 Q1015

TAF TAF LIRZ
Valid from the 12 at 12:00 until the 13 at 12:00 UTC


121100Z 1212/1312 VRB06KT CAVOK



MET'MAP, your aeronautical weather chart ! - Copyright ORBIFLY December 2007 - Disclaimer

ORBIFLY MET'MAP TEAM :

Programming & Development : Alexandra Zaïnal
Concept & original design : Baudouin d'Aumeries
Assistance for programming : Marc-Olivier Méhu
Technical & hardware support : Manuel Goepfert

Contact : metmap@orbifly.com




SOURCES & CREDITS :

   NOAA